sensor_id;sensor_type;location;lat;lon;timestamp;P1;durP1;ratioP1;P2;durP2;ratioP2
25721;SDS011;13578;53.450;15.496;2022-12-18T00:02:17;48.85;;;21.05;;
25721;SDS011;13578;53.450;15.496;2022-12-18T00:05:17;54.70;;;21.17;;
25721;SDS011;13578;53.450;15.496;2022-12-18T00:08:18;55.40;;;19.30;;
25721;SDS011;13578;53.450;15.496;2022-12-18T00:11:20;39.08;;;18.70;;
25721;SDS011;13578;53.450;15.496;2022-12-18T00:14:23;58.65;;;19.30;;
25721;SDS011;13578;53.450;15.496;2022-12-18T00:17:23;52.30;;;20.70;;
25721;SDS011;13578;53.450;15.496;2022-12-18T00:20:24;56.15;;;21.95;;
25721;SDS011;13578;53.450;15.496;2022-12-18T00:23:25;47.95;;;20.48;;
25721;SDS011;13578;53.450;15.496;2022-12-18T00:26:27;59.78;;;20.05;;
25721;SDS011;13578;53.450;15.496;2022-12-18T00:29:30;53.67;;;20.17;;
25721;SDS011;13578;53.450;15.496;2022-12-18T00:32:30;48.50;;;18.65;;
25721;SDS011;13578;53.450;15.496;2022-12-18T00:35:32;66.35;;;19.92;;
25721;SDS011;13578;53.450;15.496;2022-12-18T00:38:34;40.05;;;18.88;;
25721;SDS011;13578;53.450;15.496;2022-12-18T00:41:35;45.65;;;19.25;;
25721;SDS011;13578;53.450;15.496;2022-12-18T00:44:55;48.55;;;21.48;;
25721;SDS011;13578;53.450;15.496;2022-12-18T00:47:56;59.50;;;17.25;;
25721;SDS011;13578;53.450;15.496;2022-12-18T00:50:56;38.95;;;19.20;;
25721;SDS011;13578;53.450;15.496;2022-12-18T00:53:57;38.55;;;18.08;;
25721;SDS011;13578;53.450;15.496;2022-12-18T00:56:58;46.28;;;20.48;;
25721;SDS011;13578;53.450;15.496;2022-12-18T00:59:58;38.17;;;17.55;;
25721;SDS011;13578;53.450;15.496;2022-12-18T01:02:59;42.05;;;18.20;;
25721;SDS011;13578;53.450;15.496;2022-12-18T01:06:04;50.15;;;18.98;;
25721;SDS011;13578;53.450;15.496;2022-12-18T01:09:06;48.45;;;19.42;;
25721;SDS011;13578;53.450;15.496;2022-12-18T01:12:06;33.58;;;17.73;;
25721;SDS011;13578;53.450;15.496;2022-12-18T01:15:07;38.80;;;16.67;;
25721;SDS011;13578;53.450;15.496;2022-12-18T01:18:09;40.20;;;16.65;;
25721;SDS011;13578;53.450;15.496;2022-12-18T01:21:11;34.10;;;17.52;;
25721;SDS011;13578;53.450;15.496;2022-12-18T01:24:14;41.15;;;16.50;;
25721;SDS011;13578;53.450;15.496;2022-12-18T01:27:14;38.28;;;18.27;;
25721;SDS011;13578;53.450;15.496;2022-12-18T01:30:15;39.70;;;17.67;;
25721;SDS011;13578;53.450;15.496;2022-12-18T01:33:16;41.55;;;17.02;;
25721;SDS011;13578;53.450;15.496;2022-12-18T01:36:24;41.92;;;18.08;;
25721;SDS011;13578;53.450;15.496;2022-12-18T01:39:26;38.88;;;17.63;;
25721;SDS011;13578;53.450;15.496;2022-12-18T01:42:27;35.85;;;17.30;;
25721;SDS011;13578;53.450;15.496;2022-12-18T01:45:28;34.80;;;14.93;;
25721;SDS011;13578;53.450;15.496;2022-12-18T01:48:31;34.40;;;15.80;;
25721;SDS011;13578;53.450;15.496;2022-12-18T01:51:31;30.77;;;16.48;;
25721;SDS011;13578;53.450;15.496;2022-12-18T01:54:33;47.45;;;17.70;;
25721;SDS011;13578;53.450;15.496;2022-12-18T01:57:33;36.38;;;17.67;;
25721;SDS011;13578;53.450;15.496;2022-12-18T02:00:35;39.47;;;16.25;;
25721;SDS011;13578;53.450;15.496;2022-12-18T02:03:36;35.75;;;15.20;;
25721;SDS011;13578;53.450;15.496;2022-12-18T02:06:39;37.58;;;16.50;;
25721;SDS011;13578;53.450;15.496;2022-12-18T02:09:51;36.80;;;17.55;;
25721;SDS011;13578;53.450;15.496;2022-12-18T02:19:37;41.28;;;16.23;;
25721;SDS011;13578;53.450;15.496;2022-12-18T02:26:59;31.50;;;15.45;;
25721;SDS011;13578;53.450;15.496;2022-12-18T02:29:45;35.90;;;15.63;;
25721;SDS011;13578;53.450;15.496;2022-12-18T02:32:50;33.25;;;17.38;;
25721;SDS011;13578;53.450;15.496;2022-12-18T02:35:54;36.95;;;16.73;;
25721;SDS011;13578;53.450;15.496;2022-12-18T02:38:56;42.40;;;16.52;;
25721;SDS011;13578;53.450;15.496;2022-12-18T02:41:59;35.70;;;18.02;;
25721;SDS011;13578;53.450;15.496;2022-12-18T02:45:08;48.08;;;17.70;;
25721;SDS011;13578;53.450;15.496;2022-12-18T02:48:09;42.97;;;16.67;;
25721;SDS011;13578;53.450;15.496;2022-12-18T02:51:23;41.83;;;18.85;;
25721;SDS011;13578;53.450;15.496;2022-12-18T02:54:39;41.40;;;19.38;;
25721;SDS011;13578;53.450;15.496;2022-12-18T02:58:03;36.80;;;16.52;;
25721;SDS011;13578;53.450;15.496;2022-12-18T03:01:19;37.75;;;15.93;;
25721;SDS011;13578;53.450;15.496;2022-12-18T03:07:39;44.75;;;18.73;;
25721;SDS011;13578;53.450;15.496;2022-12-18T03:10:47;45.80;;;18.80;;
25721;SDS011;13578;53.450;15.496;2022-12-18T03:13:54;49.95;;;19.77;;
25721;SDS011;13578;53.450;15.496;2022-12-18T03:16:59;39.40;;;18.08;;
25721;SDS011;13578;53.450;15.496;2022-12-18T03:20:04;52.67;;;18.60;;
25721;SDS011;13578;53.450;15.496;2022-12-18T03:23:11;45.33;;;20.45;;
25721;SDS011;13578;53.450;15.496;2022-12-18T03:26:17;47.75;;;18.77;;
25721;SDS011;13578;53.450;15.496;2022-12-18T03:29:27;52.30;;;21.20;;
25721;SDS011;13578;53.450;15.496;2022-12-18T03:32:52;52.38;;;19.80;;
25721;SDS011;13578;53.450;15.496;2022-12-18T03:36:00;53.67;;;20.17;;
25721;SDS011;13578;53.450;15.496;2022-12-18T03:39:01;56.03;;;20.95;;
25721;SDS011;13578;53.450;15.496;2022-12-18T03:45:12;49.40;;;19.00;;
25721;SDS011;13578;53.450;15.496;2022-12-18T03:48:39;62.75;;;21.30;;
25721;SDS011;13578;53.450;15.496;2022-12-18T03:51:48;35.22;;;17.00;;
25721;SDS011;13578;53.450;15.496;2022-12-18T03:54:53;42.30;;;17.77;;
25721;SDS011;13578;53.450;15.496;2022-12-18T03:57:56;38.38;;;17.58;;
25721;SDS011;13578;53.450;15.496;2022-12-18T04:00:59;44.38;;;20.85;;
25721;SDS011;13578;53.450;15.496;2022-12-18T04:04:03;35.58;;;17.45;;
25721;SDS011;13578;53.450;15.496;2022-12-18T04:07:05;45.60;;;18.05;;
25721;SDS011;13578;53.450;15.496;2022-12-18T04:10:07;40.75;;;16.65;;
25721;SDS011;13578;53.450;15.496;2022-12-18T04:13:12;32.60;;;15.40;;
25721;SDS011;13578;53.450;15.496;2022-12-18T04:16:21;33.42;;;15.52;;
25721;SDS011;13578;53.450;15.496;2022-12-18T04:19:22;32.58;;;14.60;;
25721;SDS011;13578;53.450;15.496;2022-12-18T04:22:22;35.72;;;17.92;;
25721;SDS011;13578;53.450;15.496;2022-12-18T04:25:23;52.88;;;15.50;;
25721;SDS011;13578;53.450;15.496;2022-12-18T04:28:24;29.88;;;15.75;;
25721;SDS011;13578;53.450;15.496;2022-12-18T04:31:24;38.33;;;17.17;;
25721;SDS011;13578;53.450;15.496;2022-12-18T04:34:25;37.03;;;15.57;;
25721;SDS011;13578;53.450;15.496;2022-12-18T04:37:26;33.78;;;17.33;;
25721;SDS011;13578;53.450;15.496;2022-12-18T04:40:26;38.22;;;14.40;;
25721;SDS011;13578;53.450;15.496;2022-12-18T04:43:27;43.95;;;17.25;;
25721;SDS011;13578;53.450;15.496;2022-12-18T04:46:28;35.10;;;16.48;;
25721;SDS011;13578;53.450;15.496;2022-12-18T04:49:28;27.00;;;14.85;;
25721;SDS011;13578;53.450;15.496;2022-12-18T04:52:29;34.85;;;17.10;;
25721;SDS011;13578;53.450;15.496;2022-12-18T04:55:30;29.35;;;15.48;;
25721;SDS011;13578;53.450;15.496;2022-12-18T04:58:30;32.25;;;16.33;;
25721;SDS011;13578;53.450;15.496;2022-12-18T05:01:31;31.00;;;14.13;;
25721;SDS011;13578;53.450;15.496;2022-12-18T05:04:33;33.38;;;15.75;;
25721;SDS011;13578;53.450;15.496;2022-12-18T05:07:34;41.60;;;16.40;;
25721;SDS011;13578;53.450;15.496;2022-12-18T05:10:34;37.15;;;16.13;;
25721;SDS011;13578;53.450;15.496;2022-12-18T05:13:35;28.52;;;15.82;;
25721;SDS011;13578;53.450;15.496;2022-12-18T05:16:37;27.25;;;14.57;;
25721;SDS011;13578;53.450;15.496;2022-12-18T05:19:38;41.05;;;17.85;;
25721;SDS011;13578;53.450;15.496;2022-12-18T05:22:39;29.95;;;15.32;;
25721;SDS011;13578;53.450;15.496;2022-12-18T05:25:40;39.28;;;16.40;;
25721;SDS011;13578;53.450;15.496;2022-12-18T05:28:40;32.08;;;15.77;;
25721;SDS011;13578;53.450;15.496;2022-12-18T05:31:41;34.45;;;16.30;;
25721;SDS011;13578;53.450;15.496;2022-12-18T05:34:42;40.88;;;17.35;;
25721;SDS011;13578;53.450;15.496;2022-12-18T05:37:42;37.95;;;16.52;;
25721;SDS011;13578;53.450;15.496;2022-12-18T05:40:43;34.55;;;14.73;;
25721;SDS011;13578;53.450;15.496;2022-12-18T05:43:43;37.47;;;15.82;;
25721;SDS011;13578;53.450;15.496;2022-12-18T05:46:44;39.75;;;14.68;;
25721;SDS011;13578;53.450;15.496;2022-12-18T05:49:45;30.58;;;16.33;;
25721;SDS011;13578;53.450;15.496;2022-12-18T05:52:46;25.20;;;14.43;;
25721;SDS011;13578;53.450;15.496;2022-12-18T05:55:46;24.95;;;13.82;;
25721;SDS011;13578;53.450;15.496;2022-12-18T05:58:50;38.58;;;15.35;;
25721;SDS011;13578;53.450;15.496;2022-12-18T06:01:53;34.08;;;15.82;;
25721;SDS011;13578;53.450;15.496;2022-12-18T06:04:53;31.48;;;13.60;;
25721;SDS011;13578;53.450;15.496;2022-12-18T06:07:54;31.95;;;15.73;;
25721;SDS011;13578;53.450;15.496;2022-12-18T06:10:54;43.65;;;17.02;;
25721;SDS011;13578;53.450;15.496;2022-12-18T06:13:55;36.83;;;15.38;;
25721;SDS011;13578;53.450;15.496;2022-12-18T06:16:56;30.83;;;14.70;;
25721;SDS011;13578;53.450;15.496;2022-12-18T06:19:57;28.38;;;13.75;;
25721;SDS011;13578;53.450;15.496;2022-12-18T06:22:58;34.15;;;15.27;;
25721;SDS011;13578;53.450;15.496;2022-12-18T06:26:02;27.92;;;15.13;;
25721;SDS011;13578;53.450;15.496;2022-12-18T06:29:05;38.70;;;16.23;;
25721;SDS011;13578;53.450;15.496;2022-12-18T06:32:06;25.63;;;14.65;;
25721;SDS011;13578;53.450;15.496;2022-12-18T06:35:06;35.63;;;14.82;;
25721;SDS011;13578;53.450;15.496;2022-12-18T06:38:08;32.08;;;15.18;;
25721;SDS011;13578;53.450;15.496;2022-12-18T06:41:09;25.73;;;13.88;;
25721;SDS011;13578;53.450;15.496;2022-12-18T06:44:11;24.10;;;13.40;;
25721;SDS011;13578;53.450;15.496;2022-12-18T06:47:12;38.67;;;15.23;;
25721;SDS011;13578;53.450;15.496;2022-12-18T06:50:13;33.95;;;14.70;;
25721;SDS011;13578;53.450;15.496;2022-12-18T06:53:13;38.38;;;15.88;;
25721;SDS011;13578;53.450;15.496;2022-12-18T06:56:15;31.95;;;14.55;;
25721;SDS011;13578;53.450;15.496;2022-12-18T06:59:16;27.45;;;15.98;;
25721;SDS011;13578;53.450;15.496;2022-12-18T07:02:16;32.70;;;15.43;;
25721;SDS011;13578;53.450;15.496;2022-12-18T07:05:17;30.85;;;16.33;;
25721;SDS011;13578;53.450;15.496;2022-12-18T07:08:18;30.67;;;15.52;;
25721;SDS011;13578;53.450;15.496;2022-12-18T07:11:19;29.40;;;15.25;;
25721;SDS011;13578;53.450;15.496;2022-12-18T07:14:20;37.20;;;15.63;;
25721;SDS011;13578;53.450;15.496;2022-12-18T07:17:20;38.40;;;16.25;;
25721;SDS011;13578;53.450;15.496;2022-12-18T07:20:21;32.00;;;15.65;;
25721;SDS011;13578;53.450;15.496;2022-12-18T07:23:21;31.23;;;13.48;;
25721;SDS011;13578;53.450;15.496;2022-12-18T07:26:22;32.60;;;16.20;;
25721;SDS011;13578;53.450;15.496;2022-12-18T07:29:23;37.25;;;15.23;;
25721;SDS011;13578;53.450;15.496;2022-12-18T07:32:24;33.83;;;16.63;;
25721;SDS011;13578;53.450;15.496;2022-12-18T07:35:24;37.55;;;16.90;;
25721;SDS011;13578;53.450;15.496;2022-12-18T07:38:25;32.67;;;14.27;;
25721;SDS011;13578;53.450;15.496;2022-12-18T07:41:25;30.63;;;13.52;;
25721;SDS011;13578;53.450;15.496;2022-12-18T07:44:26;30.88;;;15.13;;
25721;SDS011;13578;53.450;15.496;2022-12-18T07:47:27;32.72;;;15.55;;
25721;SDS011;13578;53.450;15.496;2022-12-18T07:50:32;38.33;;;17.00;;
25721;SDS011;13578;53.450;15.496;2022-12-18T07:53:34;36.65;;;14.90;;
25721;SDS011;13578;53.450;15.496;2022-12-18T07:56:35;34.20;;;17.38;;
25721;SDS011;13578;53.450;15.496;2022-12-18T07:59:36;34.90;;;16.08;;
25721;SDS011;13578;53.450;15.496;2022-12-18T08:02:37;42.78;;;15.38;;
25721;SDS011;13578;53.450;15.496;2022-12-18T08:05:37;24.13;;;13.20;;
25721;SDS011;13578;53.450;15.496;2022-12-18T08:08:38;26.65;;;13.35;;
25721;SDS011;13578;53.450;15.496;2022-12-18T08:11:40;31.88;;;14.27;;
25721;SDS011;13578;53.450;15.496;2022-12-18T08:14:40;32.83;;;14.38;;
25721;SDS011;13578;53.450;15.496;2022-12-18T08:17:41;42.83;;;15.10;;
25721;SDS011;13578;53.450;15.496;2022-12-18T08:20:41;30.98;;;14.98;;
25721;SDS011;13578;53.450;15.496;2022-12-18T08:23:42;33.42;;;16.70;;
25721;SDS011;13578;53.450;15.496;2022-12-18T08:26:43;32.60;;;14.80;;
25721;SDS011;13578;53.450;15.496;2022-12-18T08:29:43;39.05;;;14.82;;
25721;SDS011;13578;53.450;15.496;2022-12-18T08:32:50;32.83;;;14.70;;
25721;SDS011;13578;53.450;15.496;2022-12-18T08:35:52;33.50;;;16.20;;
25721;SDS011;13578;53.450;15.496;2022-12-18T08:38:53;36.30;;;15.60;;
25721;SDS011;13578;53.450;15.496;2022-12-18T08:41:54;38.00;;;15.88;;
25721;SDS011;13578;53.450;15.496;2022-12-18T08:45:13;32.97;;;14.80;;
25721;SDS011;13578;53.450;15.496;2022-12-18T08:48:14;43.08;;;15.20;;
25721;SDS011;13578;53.450;15.496;2022-12-18T08:51:15;24.92;;;13.65;;
25721;SDS011;13578;53.450;15.496;2022-12-18T08:54:17;31.02;;;13.65;;
25721;SDS011;13578;53.450;15.496;2022-12-18T08:57:17;33.08;;;14.85;;
25721;SDS011;13578;53.450;15.496;2022-12-18T09:00:18;30.98;;;14.90;;
25721;SDS011;13578;53.450;15.496;2022-12-18T09:03:19;30.02;;;14.70;;
25721;SDS011;13578;53.450;15.496;2022-12-18T09:06:22;34.88;;;15.88;;
25721;SDS011;13578;53.450;15.496;2022-12-18T09:09:23;30.75;;;15.70;;
25721;SDS011;13578;53.450;15.496;2022-12-18T09:12:24;30.42;;;14.85;;
25721;SDS011;13578;53.450;15.496;2022-12-18T09:15:25;32.45;;;14.35;;
25721;SDS011;13578;53.450;15.496;2022-12-18T09:18:26;35.60;;;15.35;;
25721;SDS011;13578;53.450;15.496;2022-12-18T09:21:28;39.08;;;15.80;;
25721;SDS011;13578;53.450;15.496;2022-12-18T09:24:30;38.63;;;16.27;;
25721;SDS011;13578;53.450;15.496;2022-12-18T09:27:31;26.52;;;16.38;;
25721;SDS011;13578;53.450;15.496;2022-12-18T09:30:32;35.42;;;15.85;;
25721;SDS011;13578;53.450;15.496;2022-12-18T09:33:37;27.80;;;15.00;;
25721;SDS011;13578;53.450;15.496;2022-12-18T09:36:38;28.27;;;14.32;;
25721;SDS011;13578;53.450;15.496;2022-12-18T09:39:38;37.35;;;16.33;;
25721;SDS011;13578;53.450;15.496;2022-12-18T09:42:39;37.70;;;14.82;;
25721;SDS011;13578;53.450;15.496;2022-12-18T09:45:41;41.35;;;16.30;;
25721;SDS011;13578;53.450;15.496;2022-12-18T09:48:48;29.08;;;12.85;;
25721;SDS011;13578;53.450;15.496;2022-12-18T09:51:54;38.42;;;15.70;;
25721;SDS011;13578;53.450;15.496;2022-12-18T09:55:00;26.90;;;14.30;;
25721;SDS011;13578;53.450;15.496;2022-12-18T09:58:15;33.70;;;14.32;;
25721;SDS011;13578;53.450;15.496;2022-12-18T10:01:39;32.58;;;14.60;;
25721;SDS011;13578;53.450;15.496;2022-12-18T10:04:41;35.42;;;16.48;;
25721;SDS011;13578;53.450;15.496;2022-12-18T10:07:55;32.25;;;14.52;;
25721;SDS011;13578;53.450;15.496;2022-12-18T10:25:16;27.58;;;14.43;;
25721;SDS011;13578;53.450;15.496;2022-12-18T10:28:18;31.92;;;15.40;;
25721;SDS011;13578;53.450;15.496;2022-12-18T10:31:21;27.15;;;13.68;;
25721;SDS011;13578;53.450;15.496;2022-12-18T10:34:23;39.78;;;14.60;;
25721;SDS011;13578;53.450;15.496;2022-12-18T10:37:25;32.42;;;15.38;;
25721;SDS011;13578;53.450;15.496;2022-12-18T10:40:27;33.35;;;15.15;;
25721;SDS011;13578;53.450;15.496;2022-12-18T10:43:28;32.20;;;16.30;;
25721;SDS011;13578;53.450;15.496;2022-12-18T10:46:33;42.80;;;17.77;;
25721;SDS011;13578;53.450;15.496;2022-12-18T10:49:33;36.20;;;16.00;;
25721;SDS011;13578;53.450;15.496;2022-12-18T10:52:36;41.78;;;16.75;;
25721;SDS011;13578;53.450;15.496;2022-12-18T10:55:39;34.88;;;16.02;;
25721;SDS011;13578;53.450;15.496;2022-12-18T10:58:46;28.70;;;14.60;;
25721;SDS011;13578;53.450;15.496;2022-12-18T11:01:59;41.20;;;16.15;;
25721;SDS011;13578;53.450;15.496;2022-12-18T11:05:00;38.67;;;15.77;;
25721;SDS011;13578;53.450;15.496;2022-12-18T11:08:02;36.17;;;15.55;;
25721;SDS011;13578;53.450;15.496;2022-12-18T11:11:04;33.55;;;13.30;;
25721;SDS011;13578;53.450;15.496;2022-12-18T11:15:01;31.80;;;14.82;;
25721;SDS011;13578;53.450;15.496;2022-12-18T11:17:48;28.90;;;12.43;;
25721;SDS011;13578;53.450;15.496;2022-12-18T11:20:54;38.63;;;16.45;;
25721;SDS011;13578;53.450;15.496;2022-12-18T11:23:59;34.93;;;14.40;;
25721;SDS011;13578;53.450;15.496;2022-12-18T11:27:06;38.55;;;15.23;;
25721;SDS011;13578;53.450;15.496;2022-12-18T11:30:25;40.70;;;15.70;;
25721;SDS011;13578;53.450;15.496;2022-12-18T11:33:30;40.88;;;14.52;;
25721;SDS011;13578;53.450;15.496;2022-12-18T11:36:33;33.35;;;16.95;;
25721;SDS011;13578;53.450;15.496;2022-12-18T11:39:42;43.90;;;15.82;;
25721;SDS011;13578;53.450;15.496;2022-12-18T11:42:54;29.88;;;14.90;;
25721;SDS011;13578;53.450;15.496;2022-12-18T11:49:38;38.72;;;15.55;;
25721;SDS011;13578;53.450;15.496;2022-12-18T11:52:41;38.63;;;15.50;;
25721;SDS011;13578;53.450;15.496;2022-12-18T11:59:17;36.45;;;16.33;;
25721;SDS011;13578;53.450;15.496;2022-12-18T12:06:19;31.17;;;14.98;;
25721;SDS011;13578;53.450;15.496;2022-12-18T12:19:56;35.38;;;14.50;;
25721;SDS011;13578;53.450;15.496;2022-12-18T12:23:04;56.75;;;18.02;;
25721;SDS011;13578;53.450;15.496;2022-12-18T12:26:19;37.03;;;16.77;;
25721;SDS011;13578;53.450;15.496;2022-12-18T12:32:32;50.47;;;15.55;;
25721;SDS011;13578;53.450;15.496;2022-12-18T12:38:50;45.03;;;16.52;;
25721;SDS011;13578;53.450;15.496;2022-12-18T12:41:55;32.92;;;15.98;;
25721;SDS011;13578;53.450;15.496;2022-12-18T12:45:16;34.35;;;16.15;;
25721;SDS011;13578;53.450;15.496;2022-12-18T12:51:53;34.60;;;16.15;;
25721;SDS011;13578;53.450;15.496;2022-12-18T12:55:00;38.22;;;15.80;;
25721;SDS011;13578;53.450;15.496;2022-12-18T13:08:12;38.17;;;16.20;;
25721;SDS011;13578;53.450;15.496;2022-12-18T13:11:46;30.63;;;15.23;;
25721;SDS011;13578;53.450;15.496;2022-12-18T13:15:12;49.67;;;18.38;;
25721;SDS011;13578;53.450;15.496;2022-12-18T13:18:22;36.55;;;16.35;;
25721;SDS011;13578;53.450;15.496;2022-12-18T13:21:26;29.20;;;15.68;;
25721;SDS011;13578;53.450;15.496;2022-12-18T13:24:30;35.50;;;16.30;;
25721;SDS011;13578;53.450;15.496;2022-12-18T13:30:46;32.97;;;16.65;;
25721;SDS011;13578;53.450;15.496;2022-12-18T13:33:49;33.08;;;15.60;;
25721;SDS011;13578;53.450;15.496;2022-12-18T13:36:50;40.80;;;16.17;;
25721;SDS011;13578;53.450;15.496;2022-12-18T13:39:51;40.17;;;16.98;;
25721;SDS011;13578;53.450;15.496;2022-12-18T13:42:52;34.08;;;16.00;;
25721;SDS011;13578;53.450;15.496;2022-12-18T13:52:37;38.03;;;15.75;;
25721;SDS011;13578;53.450;15.496;2022-12-18T13:55:39;32.92;;;15.18;;
25721;SDS011;13578;53.450;15.496;2022-12-18T13:58:45;36.50;;;15.98;;
25721;SDS011;13578;53.450;15.496;2022-12-18T14:01:50;46.90;;;16.92;;
25721;SDS011;13578;53.450;15.496;2022-12-18T14:07:52;32.75;;;15.40;;
25721;SDS011;13578;53.450;15.496;2022-12-18T14:10:54;31.30;;;14.25;;
25721;SDS011;13578;53.450;15.496;2022-12-18T14:13:55;34.10;;;17.52;;
25721;SDS011;13578;53.450;15.496;2022-12-18T14:16:56;44.03;;;15.73;;
25721;SDS011;13578;53.450;15.496;2022-12-18T14:19:57;33.85;;;15.45;;
25721;SDS011;13578;53.450;15.496;2022-12-18T14:22:58;35.13;;;16.25;;
25721;SDS011;13578;53.450;15.496;2022-12-18T14:26:03;34.58;;;15.85;;
25721;SDS011;13578;53.450;15.496;2022-12-18T14:29:28;33.88;;;17.05;;
25721;SDS011;13578;53.450;15.496;2022-12-18T14:32:30;41.85;;;17.50;;
25721;SDS011;13578;53.450;15.496;2022-12-18T14:35:31;38.10;;;16.48;;
25721;SDS011;13578;53.450;15.496;2022-12-18T14:38:34;37.80;;;16.95;;
25721;SDS011;13578;53.450;15.496;2022-12-18T14:41:39;31.95;;;17.73;;
25721;SDS011;13578;53.450;15.496;2022-12-18T14:44:40;29.85;;;15.75;;
25721;SDS011;13578;53.450;15.496;2022-12-18T14:47:43;29.33;;;15.55;;
25721;SDS011;13578;53.450;15.496;2022-12-18T14:50:44;34.33;;;16.02;;
25721;SDS011;13578;53.450;15.496;2022-12-18T14:53:46;40.47;;;18.20;;
25721;SDS011;13578;53.450;15.496;2022-12-18T14:56:49;39.05;;;18.17;;
25721;SDS011;13578;53.450;15.496;2022-12-18T15:00:06;35.08;;;17.88;;
25721;SDS011;13578;53.450;15.496;2022-12-18T15:03:17;34.85;;;17.02;;
25721;SDS011;13578;53.450;15.496;2022-12-18T15:06:30;34.90;;;17.33;;
25721;SDS011;13578;53.450;15.496;2022-12-18T15:09:33;34.40;;;15.70;;
25721;SDS011;13578;53.450;15.496;2022-12-18T15:18:38;30.45;;;15.35;;
25721;SDS011;13578;53.450;15.496;2022-12-18T15:21:42;36.60;;;15.93;;
25721;SDS011;13578;53.450;15.496;2022-12-18T15:24:43;29.35;;;15.23;;
25721;SDS011;13578;53.450;15.496;2022-12-18T15:27:45;33.55;;;15.98;;
25721;SDS011;13578;53.450;15.496;2022-12-18T15:31:00;25.30;;;15.27;;
25721;SDS011;13578;53.450;15.496;2022-12-18T15:34:17;26.80;;;14.18;;
25721;SDS011;13578;53.450;15.496;2022-12-18T15:37:21;32.97;;;14.88;;
25721;SDS011;13578;53.450;15.496;2022-12-18T15:40:22;37.08;;;17.63;;
25721;SDS011;13578;53.450;15.496;2022-12-18T15:43:24;29.52;;;15.35;;
25721;SDS011;13578;53.450;15.496;2022-12-18T15:46:35;30.02;;;14.57;;
25721;SDS011;13578;53.450;15.496;2022-12-18T15:49:36;32.03;;;15.27;;
25721;SDS011;13578;53.450;15.496;2022-12-18T15:52:41;34.95;;;16.17;;
25721;SDS011;13578;53.450;15.496;2022-12-18T15:55:44;30.00;;;16.70;;
25721;SDS011;13578;53.450;15.496;2022-12-18T15:59:13;32.90;;;15.85;;
25721;SDS011;13578;53.450;15.496;2022-12-18T16:02:16;31.55;;;18.00;;
25721;SDS011;13578;53.450;15.496;2022-12-18T16:05:18;47.42;;;16.90;;
25721;SDS011;13578;53.450;15.496;2022-12-18T16:08:20;37.55;;;17.55;;
25721;SDS011;13578;53.450;15.496;2022-12-18T16:11:25;30.05;;;16.17;;
25721;SDS011;13578;53.450;15.496;2022-12-18T16:14:40;29.45;;;16.52;;
25721;SDS011;13578;53.450;15.496;2022-12-18T16:17:42;33.63;;;17.42;;
25721;SDS011;13578;53.450;15.496;2022-12-18T16:20:43;27.67;;;14.45;;
25721;SDS011;13578;53.450;15.496;2022-12-18T16:23:47;34.28;;;14.82;;
25721;SDS011;13578;53.450;15.496;2022-12-18T16:26:47;29.88;;;15.50;;
25721;SDS011;13578;53.450;15.496;2022-12-18T16:29:49;34.13;;;17.33;;
25721;SDS011;13578;53.450;15.496;2022-12-18T16:32:50;33.03;;;17.52;;
25721;SDS011;13578;53.450;15.496;2022-12-18T16:35:51;38.05;;;16.52;;
25721;SDS011;13578;53.450;15.496;2022-12-18T16:38:53;33.75;;;17.95;;
25721;SDS011;13578;53.450;15.496;2022-12-18T16:41:53;35.05;;;18.13;;
25721;SDS011;13578;53.450;15.496;2022-12-18T16:44:54;39.92;;;19.05;;
25721;SDS011;13578;53.450;15.496;2022-12-18T16:47:55;38.95;;;17.23;;
25721;SDS011;13578;53.450;15.496;2022-12-18T16:51:02;43.78;;;16.95;;
25721;SDS011;13578;53.450;15.496;2022-12-18T16:54:04;40.58;;;16.95;;
25721;SDS011;13578;53.450;15.496;2022-12-18T16:57:05;40.08;;;17.73;;
25721;SDS011;13578;53.450;15.496;2022-12-18T17:00:06;36.70;;;17.77;;
25721;SDS011;13578;53.450;15.496;2022-12-18T17:03:07;41.78;;;19.45;;
25721;SDS011;13578;53.450;15.496;2022-12-18T17:06:07;43.85;;;17.67;;
25721;SDS011;13578;53.450;15.496;2022-12-18T17:09:10;34.10;;;17.58;;
25721;SDS011;13578;53.450;15.496;2022-12-18T17:12:13;33.00;;;16.77;;
25721;SDS011;13578;53.450;15.496;2022-12-18T17:15:14;41.38;;;18.25;;
25721;SDS011;13578;53.450;15.496;2022-12-18T17:18:15;37.42;;;19.00;;
25721;SDS011;13578;53.450;15.496;2022-12-18T17:21:15;36.35;;;15.93;;
25721;SDS011;13578;53.450;15.496;2022-12-18T17:24:16;44.22;;;19.02;;
25721;SDS011;13578;53.450;15.496;2022-12-18T17:27:17;44.85;;;16.85;;
25721;SDS011;13578;53.450;15.496;2022-12-18T17:30:18;38.58;;;16.10;;
25721;SDS011;13578;53.450;15.496;2022-12-18T17:33:19;47.03;;;18.15;;
25721;SDS011;13578;53.450;15.496;2022-12-18T17:36:20;52.05;;;20.00;;
25721;SDS011;13578;53.450;15.496;2022-12-18T17:39:21;49.80;;;19.20;;
25721;SDS011;13578;53.450;15.496;2022-12-18T17:42:22;38.40;;;17.02;;
25721;SDS011;13578;53.450;15.496;2022-12-18T17:45:23;41.28;;;19.38;;
25721;SDS011;13578;53.450;15.496;2022-12-18T17:48:23;46.80;;;18.85;;
25721;SDS011;13578;53.450;15.496;2022-12-18T17:51:24;41.55;;;18.70;;
25721;SDS011;13578;53.450;15.496;2022-12-18T17:54:25;52.10;;;20.42;;
25721;SDS011;13578;53.450;15.496;2022-12-18T17:57:26;37.10;;;18.25;;
25721;SDS011;13578;53.450;15.496;2022-12-18T18:00:26;38.97;;;19.08;;
25721;SDS011;13578;53.450;15.496;2022-12-18T18:03:28;38.67;;;16.98;;
25721;SDS011;13578;53.450;15.496;2022-12-18T18:06:29;31.70;;;18.42;;
25721;SDS011;13578;53.450;15.496;2022-12-18T18:09:30;48.63;;;21.50;;
25721;SDS011;13578;53.450;15.496;2022-12-18T18:12:30;46.33;;;19.15;;
25721;SDS011;13578;53.450;15.496;2022-12-18T18:15:56;38.03;;;19.48;;
25721;SDS011;13578;53.450;15.496;2022-12-18T18:18:58;51.60;;;20.13;;
25721;SDS011;13578;53.450;15.496;2022-12-18T18:22:00;36.47;;;19.20;;
25721;SDS011;13578;53.450;15.496;2022-12-18T18:25:01;45.65;;;21.13;;
25721;SDS011;13578;53.450;15.496;2022-12-18T18:28:02;40.33;;;17.70;;
25721;SDS011;13578;53.450;15.496;2022-12-18T18:31:07;37.03;;;18.83;;
25721;SDS011;13578;53.450;15.496;2022-12-18T18:34:13;46.17;;;19.92;;
25721;SDS011;13578;53.450;15.496;2022-12-18T18:40:15;37.38;;;18.88;;
25721;SDS011;13578;53.450;15.496;2022-12-18T18:43:16;44.08;;;19.08;;
25721;SDS011;13578;53.450;15.496;2022-12-18T18:46:16;47.75;;;20.50;;
25721;SDS011;13578;53.450;15.496;2022-12-18T18:49:17;46.75;;;19.83;;
25721;SDS011;13578;53.450;15.496;2022-12-18T18:52:18;37.38;;;18.20;;
25721;SDS011;13578;53.450;15.496;2022-12-18T18:55:18;42.80;;;21.58;;
25721;SDS011;13578;53.450;15.496;2022-12-18T18:58:19;51.55;;;19.75;;
25721;SDS011;13578;53.450;15.496;2022-12-18T19:01:20;58.28;;;20.45;;
25721;SDS011;13578;53.450;15.496;2022-12-18T19:04:22;54.25;;;21.98;;
25721;SDS011;13578;53.450;15.496;2022-12-18T19:07:22;44.88;;;20.40;;
25721;SDS011;13578;53.450;15.496;2022-12-18T19:10:23;51.90;;;22.45;;
25721;SDS011;13578;53.450;15.496;2022-12-18T19:13:24;40.80;;;21.70;;